createdAt,value
2023-04-23T00:00:12.494Z,4.25
2023-04-23T00:02:42.664Z,4.20
2023-04-23T00:05:12.964Z,4.16
2023-04-23T00:07:41.555Z,4.09
2023-04-23T00:10:10.884Z,4.08
2023-04-23T00:12:40.938Z,4.01
2023-04-23T00:15:10.098Z,3.95
2023-04-23T00:17:42.463Z,3.91
2023-04-23T00:20:11.121Z,3.84
2023-04-23T00:22:39.072Z,3.80
2023-04-23T00:25:07.366Z,3.76
2023-04-23T00:27:35.170Z,3.73
2023-04-23T00:30:04.687Z,3.62
2023-04-23T00:32:32.659Z,3.67
2023-04-23T00:35:01.108Z,3.56
2023-04-23T00:37:28.976Z,3.61
2023-04-23T00:39:56.732Z,3.56
2023-04-23T00:42:24.505Z,3.53
2023-04-23T00:44:52.786Z,3.48
2023-04-23T00:47:22.906Z,3.43
2023-04-23T00:49:53.259Z,3.40
2023-04-23T00:52:21.202Z,3.36
2023-04-23T00:54:48.955Z,3.32
2023-04-23T00:57:16.896Z,3.29
2023-04-23T00:59:44.909Z,3.31
2023-04-23T01:02:13.438Z,3.32
2023-04-23T01:04:45.061Z,3.33
2023-04-23T01:07:13.788Z,3.31
2023-04-23T01:09:42.002Z,3.25
2023-04-23T01:12:11.681Z,3.22
2023-04-23T01:14:39.794Z,3.21
2023-04-23T01:17:09.622Z,3.17
2023-04-23T01:19:37.859Z,3.13
2023-04-23T01:22:10.565Z,3.08
2023-04-23T01:24:39.810Z,3.03
2023-04-23T01:27:07.831Z,3.05
2023-04-23T01:29:36.700Z,3.09
2023-04-23T01:32:04.870Z,3.06
2023-04-23T01:34:33.783Z,3.03
2023-04-23T01:37:03.391Z,2.98
2023-04-23T01:39:32.801Z,2.94
2023-04-23T01:42:01.441Z,2.91
2023-04-23T01:44:29.743Z,2.89
2023-04-23T01:46:57.720Z,2.85
2023-04-23T01:49:25.598Z,2.79
2023-04-23T01:51:53.777Z,2.82
2023-04-23T01:54:21.554Z,2.89
2023-04-23T01:56:54.723Z,3.09
2023-04-23T01:59:23.220Z,3.23
2023-04-23T02:01:51.534Z,3.27
2023-04-23T02:04:19.833Z,3.35
2023-04-23T02:06:49.940Z,3.36
2023-04-23T02:09:17.870Z,3.39
2023-04-23T02:11:45.819Z,3.41
2023-04-23T02:14:14.957Z,3.53
2023-04-23T02:16:42.772Z,3.67
2023-04-23T02:19:12.113Z,3.59
2023-04-23T02:21:40.969Z,3.47
2023-04-23T02:24:08.846Z,3.40
2023-04-23T02:26:36.797Z,3.32
2023-04-23T02:29:09.777Z,3.27
2023-04-23T02:31:47.713Z,3.37
2023-04-23T02:34:15.761Z,3.37
2023-04-23T02:36:43.900Z,3.30
2023-04-23T02:39:12.294Z,3.35
2023-04-23T02:41:40.179Z,3.28
2023-04-23T02:44:08.116Z,3.28
2023-04-23T02:46:37.382Z,3.22
2023-04-23T02:49:07.546Z,3.34
2023-04-23T02:51:35.330Z,3.55
2023-04-23T02:54:04.229Z,3.47
2023-04-23T02:56:32.042Z,3.32
2023-04-23T02:58:59.844Z,3.25
2023-04-23T03:01:27.777Z,3.21
2023-04-23T03:03:56.917Z,3.17
2023-04-23T03:06:26.196Z,3.17
2023-04-23T03:08:54.161Z,3.09
2023-04-23T03:11:22.624Z,3.02
2023-04-23T03:13:50.558Z,2.95
2023-04-23T03:16:18.461Z,2.86
2023-04-23T03:18:46.376Z,2.82
2023-04-23T03:21:14.139Z,2.75
2023-04-23T03:23:43.301Z,2.72
2023-04-23T03:26:11.777Z,2.71
2023-04-23T03:28:39.713Z,2.61
2023-04-23T03:31:07.874Z,2.80
2023-04-23T03:33:35.738Z,2.74
2023-04-23T03:36:03.742Z,2.70
2023-04-23T03:38:31.778Z,2.65
2023-04-23T03:41:01.029Z,2.63
2023-04-23T03:43:28.851Z,2.62
2023-04-23T03:45:56.699Z,2.85
2023-04-23T03:48:24.688Z,3.05
2023-04-23T03:50:52.615Z,3.00
2023-04-23T03:53:20.443Z,3.06
2023-04-23T03:55:48.240Z,3.06
2023-04-23T03:58:17.459Z,3.09
2023-04-23T04:00:45.564Z,3.13
2023-04-23T04:03:13.552Z,3.20
2023-04-23T04:05:41.565Z,3.24
2023-04-23T04:08:09.405Z,3.32
2023-04-23T04:10:37.115Z,3.39
2023-04-23T04:13:05.165Z,3.44
2023-04-23T04:15:34.279Z,3.58
2023-04-23T04:18:02.088Z,3.70
2023-04-23T04:20:29.839Z,3.82
2023-04-23T04:22:57.780Z,3.93
2023-04-23T04:25:25.710Z,4.00
2023-04-23T04:27:53.455Z,4.08
2023-04-23T04:30:21.797Z,4.17
2023-04-23T04:32:51.011Z,4.24
2023-04-23T04:35:19.448Z,4.39
2023-04-23T04:37:47.369Z,4.52
2023-04-23T04:40:15.989Z,4.69
2023-04-23T04:42:43.884Z,4.89
2023-04-23T04:45:12.295Z,5.08
2023-04-23T04:47:40.271Z,5.26
2023-04-23T04:50:11.152Z,5.48
2023-04-23T04:52:40.167Z,5.70
2023-04-23T04:55:08.984Z,5.96
2023-04-23T04:57:36.758Z,6.26
2023-04-23T05:00:22.484Z,6.58
2023-04-23T05:02:52.466Z,6.72
2023-04-23T05:05:23.823Z,7.14
2023-04-23T05:07:51.871Z,7.40
2023-04-23T05:10:19.813Z,7.66
2023-04-23T05:12:48.185Z,7.87
2023-04-23T05:15:16.459Z,8.12
2023-04-23T05:17:45.015Z,8.29
2023-04-23T05:20:13.170Z,8.45
2023-04-23T05:22:43.201Z,8.60
2023-04-23T05:25:12.787Z,8.69
2023-04-23T05:27:41.155Z,8.85
2023-04-23T05:30:10.582Z,9.01
2023-04-23T05:32:39.049Z,9.16
2023-04-23T05:35:07.606Z,9.52
2023-04-23T05:37:35.648Z,9.53
2023-04-23T05:40:07.172Z,9.87
2023-04-23T05:42:36.813Z,10.04
2023-04-23T05:45:07.933Z,10.29
2023-04-23T05:47:36.572Z,10.42
2023-04-23T05:50:04.560Z,10.22
2023-04-23T05:52:33.579Z,10.44
2023-04-23T05:55:01.344Z,10.58
2023-04-23T05:57:30.532Z,10.65
2023-04-23T05:59:58.300Z,10.57
2023-04-23T06:02:26.554Z,10.71
2023-04-23T06:04:54.906Z,10.55
2023-04-23T06:07:22.798Z,10.61
2023-04-23T06:09:50.533Z,10.56
2023-04-23T06:12:19.068Z,10.48
2023-04-23T06:14:48.625Z,10.64
2023-04-23T06:17:16.453Z,10.74
2023-04-23T06:19:44.378Z,10.90
2023-04-23T06:22:12.209Z,10.94
2023-04-23T06:24:40.267Z,11.15
2023-04-23T06:27:08.210Z,11.31
2023-04-23T06:29:36.008Z,11.32
2023-04-23T06:32:05.305Z,11.47
2023-04-23T06:34:33.127Z,11.76
2023-04-23T06:37:01.241Z,11.92
2023-04-23T06:39:29.026Z,12.39
2023-04-23T06:41:58.154Z,13.05
2023-04-23T06:44:25.875Z,13.27
2023-04-23T06:46:53.899Z,13.55
2023-04-23T06:49:23.091Z,13.71
2023-04-23T06:51:50.885Z,13.87
2023-04-23T06:54:19.029Z,14.07
2023-04-23T06:56:46.849Z,13.90
2023-04-23T06:59:14.656Z,13.73
2023-04-23T07:01:42.498Z,13.62
2023-04-23T07:04:10.399Z,13.16
2023-04-23T07:06:39.630Z,13.04
2023-04-23T07:09:07.546Z,12.83
2023-04-23T07:11:39.097Z,12.91
2023-04-23T07:14:06.922Z,12.91
2023-04-23T07:16:34.746Z,13.19
2023-04-23T07:19:03.008Z,13.33
2023-04-23T07:21:31.028Z,13.29
2023-04-23T07:24:03.396Z,13.32
2023-04-23T07:26:31.173Z,13.35
2023-04-23T07:28:58.974Z,13.75
2023-04-23T07:31:26.878Z,14.22
2023-04-23T07:33:54.730Z,14.43
2023-04-23T07:36:22.542Z,14.11
2023-04-23T07:38:51.164Z,14.32
2023-04-23T07:41:20.593Z,14.42
2023-04-23T07:43:49.075Z,13.99
2023-04-23T07:46:16.975Z,14.42
2023-04-23T07:48:44.855Z,14.46
2023-04-23T07:51:13.350Z,14.82
2023-04-23T07:53:41.285Z,15.02
2023-04-23T07:56:09.190Z,15.30
2023-04-23T07:58:38.501Z,15.70
2023-04-23T08:01:06.478Z,15.90
2023-04-23T08:03:34.388Z,16.18
2023-04-23T08:06:04.562Z,16.91
2023-04-23T08:08:32.471Z,17.16
2023-04-23T08:11:00.389Z,17.87
2023-04-23T08:13:28.223Z,18.70
2023-04-23T08:15:57.402Z,19.45
2023-04-23T08:18:25.387Z,20.23
2023-04-23T08:20:53.173Z,20.69
2023-04-23T08:23:21.102Z,20.94
2023-04-23T08:25:48.892Z,21.17
2023-04-23T08:28:16.818Z,21.66
2023-04-23T08:30:44.622Z,21.96
2023-04-23T08:33:13.738Z,22.51
2023-04-23T08:35:41.659Z,22.52
2023-04-23T08:38:09.489Z,23.32
2023-04-23T08:40:38.686Z,23.26
2023-04-23T08:43:14.083Z,22.69
2023-04-23T08:45:42.615Z,22.95
2023-04-23T08:48:11.271Z,22.69
2023-04-23T08:50:44.377Z,22.25
2023-04-23T08:53:12.628Z,22.12
2023-04-23T08:55:41.378Z,22.08
2023-04-23T08:58:09.373Z,22.96
2023-04-23T09:00:37.402Z,23.25
2023-04-23T09:03:05.767Z,23.60
2023-04-23T09:05:34.003Z,23.87
2023-04-23T09:08:03.173Z,23.95
2023-04-23T09:10:30.991Z,23.56
2023-04-23T09:12:58.867Z,23.78
2023-04-23T09:15:26.791Z,23.34
2023-04-23T09:17:54.772Z,23.44
2023-04-23T09:20:25.614Z,23.64
2023-04-23T09:22:53.839Z,23.98
2023-04-23T09:25:24.767Z,24.02
2023-04-23T09:27:53.830Z,23.64
2023-04-23T09:30:21.899Z,23.48
2023-04-23T09:32:50.068Z,23.81
2023-04-23T09:35:19.951Z,23.70
2023-04-23T09:37:50.496Z,24.25
2023-04-23T09:40:20.047Z,24.75
2023-04-23T09:42:52.689Z,24.72
2023-04-23T09:45:21.148Z,24.76
2023-04-23T09:47:53.727Z,25.08
2023-04-23T09:50:32.700Z,25.60
2023-04-23T09:53:00.557Z,26.03
2023-04-23T09:55:35.701Z,25.24
2023-04-23T09:58:05.440Z,25.42
2023-04-23T10:00:38.206Z,25.53
2023-04-23T10:03:07.980Z,25.61
2023-04-23T10:05:59.861Z,26.11
2023-04-23T10:08:28.832Z,26.48
2023-04-23T10:11:09.406Z,26.83
2023-04-23T10:13:39.502Z,25.92
2023-04-23T10:16:21.231Z,26.44
2023-04-23T10:18:52.863Z,26.15
2023-04-23T10:21:21.553Z,25.54
2023-04-23T10:23:52.360Z,25.60
2023-04-23T10:26:24.001Z,25.96
2023-04-23T10:28:56.040Z,26.02
2023-04-23T10:31:24.633Z,24.87
2023-04-23T10:33:58.127Z,25.05
2023-04-23T10:36:29.156Z,24.64
2023-04-23T10:39:00.638Z,25.10
2023-04-23T10:41:38.404Z,25.52
2023-04-23T10:44:12.229Z,26.37
2023-04-23T10:46:40.168Z,26.35
2023-04-23T10:49:14.861Z,26.61
2023-04-23T10:54:15.724Z,26.48
2023-04-23T10:56:44.783Z,27.14
2023-04-23T10:59:23.477Z,26.23
2023-04-23T11:01:52.864Z,25.97
2023-04-23T11:04:23.038Z,25.54
2023-04-23T11:06:59.638Z,25.73
2023-04-23T11:09:32.695Z,26.35
2023-04-23T11:12:01.895Z,27.61
2023-04-23T11:14:42.618Z,28.37
2023-04-23T11:17:13.287Z,29.17
2023-04-23T11:19:42.316Z,28.78
2023-04-23T11:22:15.324Z,27.60
2023-04-23T11:24:45.955Z,26.88
2023-04-23T11:27:16.031Z,27.09
2023-04-23T11:29:46.739Z,27.21
2023-04-23T11:32:17.613Z,28.59
2023-04-23T11:34:47.711Z,28.93
2023-04-23T11:37:16.330Z,28.67
2023-04-23T11:39:45.780Z,28.72
2023-04-23T11:42:14.372Z,29.20
2023-04-23T11:44:43.463Z,29.09
2023-04-23T11:47:13.960Z,28.65
2023-04-23T11:49:42.912Z,28.40
2023-04-23T11:52:11.358Z,27.67
2023-04-23T11:54:42.067Z,26.91
2023-04-23T11:57:10.530Z,27.15
2023-04-23T11:59:38.617Z,27.92
2023-04-23T12:02:06.564Z,27.94
2023-04-23T12:04:36.948Z,27.13
2023-04-23T12:07:19.351Z,27.72
2023-04-23T12:09:51.274Z,27.35
2023-04-23T12:12:19.121Z,25.89
2023-04-23T12:14:46.943Z,25.82
2023-04-23T12:17:14.883Z,25.80
2023-04-23T12:19:45.805Z,24.58
2023-04-23T12:22:13.663Z,24.39
2023-04-23T12:24:49.030Z,24.34
2023-04-23T12:27:20.573Z,25.46
2023-04-23T12:29:48.470Z,25.44
2023-04-23T12:32:16.655Z,25.82
2023-04-23T12:34:54.431Z,26.55
2023-04-23T12:37:26.517Z,27.12
2023-04-23T12:39:56.403Z,26.86
2023-04-23T12:42:24.320Z,26.60
2023-04-23T12:44:52.516Z,25.89
2023-04-23T12:47:20.492Z,23.93
2023-04-23T12:49:53.343Z,23.05
2023-04-23T12:52:22.973Z,22.70
2023-04-23T12:54:52.703Z,22.77
2023-04-23T12:57:23.260Z,22.01
2023-04-23T12:59:51.675Z,21.74
2023-04-23T13:02:19.621Z,21.98
2023-04-23T13:04:47.518Z,22.21
2023-04-23T13:07:15.451Z,22.00
2023-04-23T13:09:44.910Z,21.40
2023-04-23T13:12:13.133Z,20.39
2023-04-23T13:14:40.955Z,19.78
2023-04-23T13:17:08.772Z,19.33
2023-04-23T13:19:39.634Z,18.78
2023-04-23T13:22:07.847Z,18.66
2023-04-23T13:24:35.833Z,18.87
2023-04-23T13:27:05.091Z,18.73
2023-04-23T13:29:33.634Z,18.80
2023-04-23T13:32:01.746Z,18.76
2023-04-23T13:34:30.854Z,19.01
2023-04-23T13:36:59.406Z,19.25
2023-04-23T13:39:27.411Z,19.61
2023-04-23T13:42:08.922Z,19.73
2023-04-23T13:44:38.624Z,19.93
2023-04-23T13:47:06.599Z,20.01
2023-04-23T13:49:34.397Z,20.16
2023-04-23T13:52:06.621Z,20.30
2023-04-23T13:54:35.529Z,20.71
2023-04-23T13:57:03.669Z,20.92
2023-04-23T13:59:31.474Z,21.49
2023-04-23T14:02:01.072Z,21.50
2023-04-23T14:04:28.934Z,20.94
2023-04-23T14:06:56.730Z,20.59
2023-04-23T14:09:24.563Z,20.25
2023-04-23T14:11:52.635Z,19.77
2023-04-23T14:14:20.552Z,19.26
2023-04-23T14:16:48.475Z,18.81
2023-04-23T14:19:18.400Z,18.70
2023-04-23T14:21:46.464Z,18.73
2023-04-23T14:24:19.387Z,18.40
2023-04-23T14:26:49.700Z,17.86
2023-04-23T14:29:26.421Z,17.57
2023-04-23T14:31:54.361Z,17.50
2023-04-23T14:34:23.544Z,17.48
2023-04-23T14:36:52.995Z,17.35
2023-04-23T14:39:23.042Z,17.37
2023-04-23T14:41:51.004Z,17.29
2023-04-23T14:44:19.236Z,17.23
2023-04-23T14:46:49.882Z,17.28
2023-04-23T14:49:17.712Z,17.31
2023-04-23T14:51:46.952Z,17.23
2023-04-23T14:54:14.828Z,17.01
2023-04-23T14:56:43.106Z,17.04
2023-04-23T14:59:11.236Z,16.82
2023-04-23T15:01:39.237Z,16.77
2023-04-23T15:04:07.152Z,16.73
2023-04-23T15:06:35.024Z,16.51
2023-04-23T15:09:04.281Z,16.56
2023-04-23T15:11:33.022Z,16.48
2023-04-23T15:14:04.825Z,16.45
2023-04-23T15:19:07.436Z,16.53
2023-04-23T15:21:36.403Z,16.66
2023-04-23T15:24:07.783Z,16.94
2023-04-23T15:26:36.338Z,17.13
2023-04-23T15:29:04.993Z,16.88
2023-04-23T15:31:33.069Z,16.81
2023-04-23T15:34:01.337Z,16.68
2023-04-23T15:36:29.105Z,16.69
2023-04-23T15:38:56.883Z,16.72
2023-04-23T15:41:27.221Z,16.59
2023-04-23T15:43:55.555Z,16.54
2023-04-23T15:46:23.364Z,16.46
2023-04-23T15:48:51.200Z,16.55
2023-04-23T15:51:19.020Z,16.52
2023-04-23T15:53:47.046Z,16.56
2023-04-23T15:56:14.881Z,16.49
2023-04-23T15:58:44.049Z,16.29
2023-04-23T16:01:11.913Z,16.07
2023-04-23T16:03:39.986Z,15.97
2023-04-23T16:06:09.049Z,15.84
2023-04-23T16:08:38.301Z,15.64
2023-04-23T16:11:07.281Z,15.54
2023-04-23T16:13:35.417Z,15.33
2023-04-23T16:16:04.860Z,15.43
2023-04-23T16:18:32.807Z,15.22
2023-04-23T16:21:01.481Z,15.18
2023-04-23T16:23:29.459Z,15.13
2023-04-23T16:25:57.740Z,14.97
2023-04-23T16:28:25.534Z,15.02
2023-04-23T16:30:53.387Z,15.00
2023-04-23T16:33:24.083Z,14.94
2023-04-23T16:35:51.869Z,14.83
2023-04-23T16:38:19.624Z,14.69
2023-04-23T16:40:47.534Z,14.57
2023-04-23T16:43:15.440Z,14.63
2023-04-23T16:45:43.255Z,14.57
2023-04-23T16:48:13.076Z,14.54
2023-04-23T16:50:43.106Z,14.42
2023-04-23T16:53:11.204Z,14.29
2023-04-23T16:55:39.043Z,14.22
2023-04-23T16:58:07.041Z,14.18
2023-04-23T17:00:34.837Z,14.16
2023-04-23T17:03:02.761Z,14.19
2023-04-23T17:05:35.043Z,14.01
2023-04-23T17:08:04.218Z,13.81
2023-04-23T17:10:32.084Z,13.89
2023-04-23T17:12:59.926Z,13.80
2023-04-23T17:15:27.801Z,13.74
2023-04-23T17:17:56.818Z,13.77
2023-04-23T17:20:24.670Z,13.80
2023-04-23T17:22:52.548Z,13.72
2023-04-23T17:25:22.323Z,13.69
2023-04-23T17:27:50.188Z,13.68
2023-04-23T17:30:18.143Z,13.65
2023-04-23T17:32:46.005Z,13.64
2023-04-23T17:35:13.891Z,13.62
2023-04-23T17:37:41.670Z,13.57
2023-04-23T17:40:10.869Z,13.38
2023-04-23T17:42:40.136Z,13.44
2023-04-23T17:45:08.953Z,13.39
2023-04-23T17:47:37.457Z,13.35
2023-04-23T17:50:06.342Z,13.28
2023-04-23T17:52:34.350Z,13.09
2023-04-23T17:55:02.102Z,12.98
2023-04-23T17:57:29.898Z,12.84
2023-04-23T18:00:02.113Z,12.73
2023-04-23T18:02:30.171Z,12.65
2023-04-23T18:04:59.334Z,12.51
2023-04-23T18:07:27.219Z,12.38
2023-04-23T18:09:54.936Z,12.17
2023-04-23T18:12:22.727Z,11.89
2023-04-23T18:14:50.663Z,11.63
2023-04-23T18:17:19.849Z,11.48
2023-04-23T18:19:49.032Z,11.35
2023-04-23T18:22:18.979Z,11.28
2023-04-23T18:24:47.287Z,11.03
2023-04-23T18:27:15.725Z,10.99
2023-04-23T18:29:44.052Z,10.76
2023-04-23T18:32:20.971Z,10.66
2023-04-23T18:34:53.416Z,10.41
2023-04-23T18:37:33.834Z,10.40
2023-04-23T18:40:01.639Z,10.35
2023-04-23T18:42:29.517Z,10.28
2023-04-23T18:44:57.382Z,10.27
2023-04-23T18:47:31.454Z,10.26
2023-04-23T18:50:05.294Z,10.29
2023-04-23T18:52:33.537Z,10.30
2023-04-23T18:55:01.932Z,10.14
2023-04-23T18:57:29.684Z,10.05
2023-04-23T18:59:57.390Z,9.99
2023-04-23T19:02:35.105Z,9.98
2023-04-23T19:05:05.735Z,10.00
2023-04-23T19:07:37.341Z,9.95
2023-04-23T19:10:05.734Z,9.94
2023-04-23T19:12:33.544Z,9.87
2023-04-23T19:15:01.317Z,9.76
2023-04-23T19:17:29.153Z,9.80
2023-04-23T19:19:57.056Z,9.73
2023-04-23T19:22:26.379Z,9.65
2023-04-23T19:24:54.521Z,9.67
2023-04-23T19:27:22.452Z,9.64
2023-04-23T19:29:52.434Z,9.52
2023-04-23T19:32:20.210Z,9.57
2023-04-23T19:34:47.998Z,9.57
2023-04-23T19:37:15.820Z,9.44
2023-04-23T19:39:45.328Z,9.46
2023-04-23T19:42:13.215Z,9.53
2023-04-23T19:44:40.969Z,9.42
2023-04-23T19:47:08.959Z,9.52
2023-04-23T19:49:36.824Z,9.50
2023-04-23T19:52:05.244Z,9.46
2023-04-23T19:54:33.002Z,9.40
2023-04-23T19:57:03.426Z,9.39
2023-04-23T19:59:31.510Z,9.30
2023-04-23T20:01:59.268Z,9.29
2023-04-23T20:04:27.200Z,9.24
2023-04-23T20:06:55.322Z,9.13
2023-04-23T20:09:25.179Z,9.08
2023-04-23T20:11:53.572Z,9.05
2023-04-23T20:14:22.997Z,9.03
2023-04-23T20:16:50.961Z,8.97
2023-04-23T20:19:19.308Z,8.83
2023-04-23T20:21:47.344Z,8.85
2023-04-23T20:24:17.297Z,8.86
2023-04-23T20:26:45.089Z,8.83
2023-04-23T20:29:13.502Z,8.80
2023-04-23T20:31:42.842Z,8.79
2023-04-23T20:34:11.108Z,8.71
2023-04-23T20:36:38.966Z,8.72
2023-04-23T20:39:06.894Z,8.72
2023-04-23T20:41:36.640Z,8.74
2023-04-23T20:44:06.016Z,8.65
2023-04-23T20:46:34.211Z,8.53
2023-04-23T20:49:04.073Z,8.67
2023-04-23T20:51:34.288Z,8.63
2023-04-23T20:54:03.065Z,8.46
2023-04-23T20:56:31.585Z,8.63
2023-04-23T20:58:59.540Z,8.67
2023-04-23T21:01:27.770Z,8.66
2023-04-23T21:03:56.919Z,8.61
2023-04-23T21:06:26.356Z,8.61
2023-04-23T21:08:54.158Z,8.63
2023-04-23T21:11:22.107Z,8.59
2023-04-23T21:13:50.123Z,8.52
2023-04-23T21:16:19.083Z,8.53
2023-04-23T21:18:47.598Z,8.50
2023-04-23T21:21:15.493Z,8.51
2023-04-23T21:23:44.623Z,8.50
2023-04-23T21:26:13.128Z,8.52
2023-04-23T21:28:41.003Z,8.48
2023-04-23T21:31:14.814Z,8.45
2023-04-23T21:33:42.680Z,8.28
2023-04-23T21:36:10.768Z,8.18
2023-04-23T21:38:38.542Z,8.05
2023-04-23T21:41:08.651Z,7.87
2023-04-23T21:43:36.386Z,7.67
2023-04-23T21:46:04.236Z,7.58
2023-04-23T21:48:33.487Z,7.41
2023-04-23T21:51:02.310Z,7.30
2023-04-23T21:53:30.224Z,7.23
2023-04-23T21:55:58.383Z,7.08
2023-04-23T21:58:28.175Z,7.00
2023-04-23T22:00:56.095Z,6.93
2023-04-23T22:03:38.344Z,6.91
2023-04-23T22:06:08.110Z,6.82
2023-04-23T22:08:38.006Z,6.68
2023-04-23T22:11:06.887Z,6.64
2023-04-23T22:13:36.604Z,6.62
2023-04-23T22:16:10.707Z,6.50
2023-04-23T22:18:44.775Z,6.48
2023-04-23T22:21:13.309Z,6.42
2023-04-23T22:23:41.240Z,6.38
2023-04-23T22:26:09.015Z,6.32
2023-04-23T22:28:38.184Z,6.27
2023-04-23T22:31:06.049Z,6.33
2023-04-23T22:33:35.039Z,6.18
2023-04-23T22:36:02.996Z,6.20
2023-04-23T22:38:30.805Z,6.22
2023-04-23T22:40:58.607Z,6.19
2023-04-23T22:43:44.152Z,6.20
2023-04-23T22:46:13.942Z,6.14
2023-04-23T22:48:44.671Z,6.10
2023-04-23T22:51:12.731Z,6.04
2023-04-23T22:53:40.614Z,6.04
2023-04-23T22:56:08.589Z,5.94
2023-04-23T22:58:37.106Z,5.94
2023-04-23T23:01:05.195Z,5.93
2023-04-23T23:03:34.471Z,5.93
2023-04-23T23:06:03.042Z,5.90
2023-04-23T23:08:30.844Z,5.96
2023-04-23T23:10:58.634Z,5.95
2023-04-23T23:13:26.526Z,5.89
2023-04-23T23:15:54.373Z,5.88
2023-04-23T23:18:22.152Z,5.85
2023-04-23T23:20:51.436Z,5.86
2023-04-23T23:23:19.420Z,5.90
2023-04-23T23:25:47.197Z,5.88
2023-04-23T23:28:14.998Z,5.87
2023-04-23T23:30:43.390Z,5.85
2023-04-23T23:33:13.911Z,5.89
2023-04-23T23:35:43.531Z,5.83
2023-04-23T23:38:12.955Z,5.83
2023-04-23T23:40:40.993Z,5.86
2023-04-23T23:43:08.949Z,5.83
2023-04-23T23:45:36.761Z,5.83
2023-04-23T23:48:05.686Z,5.72
2023-04-23T23:50:33.750Z,5.70
2023-04-23T23:53:06.305Z,5.73
2023-04-23T23:55:37.679Z,5.73
2023-04-23T23:58:06.219Z,5.68
